Time;durP1;ratioP1;P1;durP2;ratioP2;P2;SDS_P1;SDS_P2;PMS_P1;PMS_P2;Temp;Humidity;BMP_temperature;BMP_pressure;BME280_temperature;BME280_humidity;BME280_pressure;Samples;Min_cycle;Max_cycle;Signal;HPM_P1;HPM_P2
2023/04/21 00:01:45;;;;;;;;;;;;;;;;;;4899884;29;19927;-80
2023/04/21 00:04:12;;;;;;;;;;;;;;;;;;4900135;29;19966;-80
2023/04/21 00:06:40;;;;;;;;;;;;;;;;;;4930651;29;19967;-79
2023/04/21 00:09:05;;;;;;;;;;;;;;;;;;4920187;29;19939;-79
2023/04/21 00:11:31;;;;;;;;;;;;;;;;;;4878598;29;19915;-79
2023/04/21 00:13:56;;;;;;;;;;;;;;;;;;4898091;29;19922;-79
2023/04/21 00:16:21;;;;;;;;;;;;;;;;;;4916045;29;19924;-79
2023/04/21 00:18:47;;;;;;;;;;;;;;;;;;4921747;29;19916;-79
2023/04/21 00:24:05;;;;;;;;;;;;;;;;;;4887238;29;19935;-84
2023/04/21 00:26:31;;;;;;;;;;;;;;;;;;4869206;29;19915;-80
2023/04/21 00:28:57;;;;;;;;;;;;;;;;;;4872892;29;19916;-82
2023/04/21 00:31:25;;;;;;;;;;;;;;;;;;4886294;29;19922;-82
2023/04/21 00:33:52;;;;;;;;;;;;;;;;;;4870474;29;19956;-83
2023/04/21 00:36:20;;;;;;;;;;;;;;;;;;4869361;29;19926;-84
2023/04/21 00:38:46;;;;;;;;;;;;;;;;;;4841411;29;19932;-81
2023/04/21 00:41:13;;;;;;;;;;;;;;;;;;4837914;29;19951;-84
2023/04/21 00:43:39;;;;;;;;;;;;;;;;;;4869049;29;20284;-84
2023/04/21 00:46:08;;;;;;;;;;;;;;;;;;4870452;29;19916;-84
2023/04/21 00:48:40;;;;;;;;;;;;;;;;;;4841627;29;19941;-81
2023/04/21 00:51:06;;;;;;;;;;;;;;;;;;4841188;29;20341;-83
2023/04/21 00:53:33;;;;;;;;;;;;;;;;;;4870608;29;19949;-81
2023/04/21 00:56:02;;;;;;;;;;;;;;;;;;4871518;29;19921;-81
2023/04/21 00:58:31;;;;;;;;;;;;;;;;;;4869266;29;20003;-82
2023/04/21 01:00:57;;;;;;;;;;;;;;;;;;4884467;29;20015;-83
2023/04/21 01:03:22;;;;;;;;;;;;;;;;;;4854678;29;19980;-81
2023/04/21 01:05:48;;;;;;;;;;;;;;;;;;4838190;29;19955;-81
2023/04/21 01:08:14;;;;;;;;;;;;;;;;;;4872916;29;19926;-79
2023/04/21 01:10:40;;;;;;;;;;;;;;;;;;4883701;29;20010;-81
2023/04/21 01:13:05;;;;;;;;;;;;;;;;;;4871615;29;20006;-83
2023/04/21 01:15:31;;;;;;;;;;;;;;;;;;4883973;29;19920;-84
2023/04/21 01:17:57;;;;;;;;;;;;;;;;;;4869685;29;20011;-84
2023/04/21 01:20:22;;;;;;;;;;;;;;;;;;4882411;29;19920;-85
2023/04/21 01:22:50;;;;;;;;;;;;;;;;;;4847165;29;19919;-84
2023/04/21 01:25:17;;;;;;;;;;;;;;;;;;4860467;29;19917;-79
2023/04/21 01:27:42;;;;;;;;;;;;;;;;;;4871554;29;19924;-80
2023/04/21 01:30:08;;;;;;;;;;;;;;;;;;4855416;29;19920;-77
2023/04/21 01:32:34;;;;;;;;;;;;;;;;;;4844152;29;20264;-79
2023/04/21 01:34:59;;;;;;;;;;;;;;;;;;4859225;29;20015;-80
2023/04/21 01:37:25;;;;;;;;;;;;;;;;;;4844368;29;20384;-79
2023/04/21 01:39:51;;;;;;;;;;;;;;;;;;4859576;29;20373;-81
2023/04/21 01:42:16;;;;;;;;;;;;;;;;;;4860847;29;20296;-78
2023/04/21 01:44:41;;;;;;;;;;;;;;;;;;4860883;29;20369;-79
2023/04/21 01:47:07;;;;;;;;;;;;;;;;;;4861202;29;19924;-80
2023/04/21 01:49:33;;;;;;;;;;;;;;;;;;4861052;29;20334;-79
2023/04/21 01:51:58;;;;;;;;;;;;;;;;;;4844416;29;19964;-79
2023/04/21 01:54:24;;;;;;;;;;;;;;;;;;4859708;29;20304;-79
2023/04/21 01:56:50;;;;;;;;;;;;;;;;;;4860988;29;19972;-79
2023/04/21 01:59:16;;;;;;;;;;;;;;;;;;4862334;29;19916;-78
2023/04/21 02:01:41;;;;;;;;;;;;;;;;;;4860746;29;19959;-79
2023/04/21 02:04:07;;;;;;;;;;;;;;;;;;4845653;29;19923;-80
2023/04/21 02:06:34;;;;;;;;;;;;;;;;;;4845613;29;19931;-79
2023/04/21 02:09:00;;;;;;;;;;;;;;;;;;4861637;29;19983;-79
2023/04/21 02:11:27;;;;;;;;;;;;;;;;;;4861523;29;19923;-78
2023/04/21 02:13:53;;;;;;;;;;;;;;;;;;4878027;29;19920;-82
2023/04/21 02:16:19;;;;;;;;;;;;;;;;;;4862095;29;20292;-81
2023/04/21 02:18:47;;;;;;;;;;;;;;;;;;4864130;29;20007;-81
2023/04/21 02:21:15;;;;;;;;;;;;;;;;;;4852564;29;19916;-80
2023/04/21 02:23:41;;;;;;;;;;;;;;;;;;4867691;29;19926;-81
2023/04/21 02:26:07;;;;;;;;;;;;;;;;;;4851885;29;19983;-81
2023/04/21 02:28:32;;;;;;;;;;;;;;;;;;4849846;29;19989;-82
2023/04/21 02:30:58;;;;;;;;;;;;;;;;;;4865964;29;20300;-81
2023/04/21 02:33:23;;;;;;;;;;;;;;;;;;4866125;29;19916;-80
2023/04/21 02:35:49;;;;;;;;;;;;;;;;;;4849135;29;19987;-80
2023/04/21 02:38:15;;;;;;;;;;;;;;;;;;4866018;29;19923;-81
2023/04/21 02:40:41;;;;;;;;;;;;;;;;;;4879598;29;20308;-79
2023/04/21 02:43:07;;;;;;;;;;;;;;;;;;4864325;29;20300;-79
2023/04/21 02:45:32;;;;;;;;;;;;;;;;;;4864067;29;19923;-80
2023/04/21 02:47:58;;;;;;;;;;;;;;;;;;4880064;29;19972;-80
2023/04/21 02:50:24;;;;;;;;;;;;;;;;;;4864384;29;20402;-82
2023/04/21 02:52:49;;;;;;;;;;;;;;;;;;4880380;29;19912;-82
2023/04/21 02:55:15;;;;;;;;;;;;;;;;;;4863150;29;20278;-80
2023/04/21 02:57:40;;;;;;;;;;;;;;;;;;4863791;29;19974;-82
2023/04/21 03:00:06;;;;;;;;;;;;;;;;;;4876256;29;19923;-77
2023/04/21 03:02:32;;;;;;;;;;;;;;;;;;4863566;29;20014;-80
2023/04/21 03:04:57;;;;;;;;;;;;;;;;;;4864821;29;19987;-81
2023/04/21 03:07:22;;;;;;;;;;;;;;;;;;4850731;29;19920;-82
2023/04/21 03:09:48;;;;;;;;;;;;;;;;;;4883426;29;19924;-80
2023/04/21 03:12:14;;;;;;;;;;;;;;;;;;4869872;29;19920;-80
2023/04/21 03:14:41;;;;;;;;;;;;;;;;;;4869198;29;19923;-79
2023/04/21 03:17:06;;;;;;;;;;;;;;;;;;4863541;29;19916;-81
2023/04/21 03:19:32;;;;;;;;;;;;;;;;;;4862490;29;19916;-80
2023/04/21 03:21:57;;;;;;;;;;;;;;;;;;4862155;29;19956;-82
2023/04/21 03:24:23;;;;;;;;;;;;;;;;;;4831879;29;20337;-78
2023/04/21 03:26:48;;;;;;;;;;;;;;;;;;4863032;29;19923;-83
2023/04/21 03:29:14;;;;;;;;;;;;;;;;;;4831599;29;19920;-82
2023/04/21 03:31:39;;;;;;;;;;;;;;;;;;4862358;29;19920;-80
2023/04/21 03:34:05;;;;;;;;;;;;;;;;;;4847120;29;20288;-80
2023/04/21 03:36:31;;;;;;;;;;;;;;;;;;4847149;29;20403;-79
2023/04/21 03:38:57;;;;;;;;;;;;;;;;;;4863493;29;19923;-80
2023/04/21 03:41:23;;;;;;;;;;;;;;;;;;4862814;29;19931;-79
2023/04/21 03:43:48;;;;;;;;;;;;;;;;;;4863800;29;20309;-81
2023/04/21 03:46:14;;;;;;;;;;;;;;;;;;4862593;29;20292;-80
2023/04/21 03:48:39;;;;;;;;;;;;;;;;;;4862782;29;20306;-82
2023/04/21 03:51:05;;;;;;;;;;;;;;;;;;4862287;29;19947;-81
2023/04/21 03:53:31;;;;;;;;;;;;;;;;;;4863174;29;20410;-81
2023/04/21 03:55:56;;;;;;;;;;;;;;;;;;4863813;29;20338;-82
2023/04/21 03:58:22;;;;;;;;;;;;;;;;;;4864392;29;20304;-82
2023/04/21 04:00:47;;;;;;;;;;;;;;;;;;4863790;29;20183;-80
2023/04/21 04:03:13;;;;;;;;;;;;;;;;;;4863174;29;20026;-81
2023/04/21 04:05:39;;;;;;;;;;;;;;;;;;4863572;29;20396;-82
2023/04/21 04:08:05;;;;;;;;;;;;;;;;;;4832761;29;19920;-83
2023/04/21 04:10:30;;;;;;;;;;;;;;;;;;4864159;29;19920;-80
2023/04/21 04:12:56;;;;;;;;;;;;;;;;;;4862908;29;20289;-82
2023/04/21 04:15:22;;;;;;;;;;;;;;;;;;4847186;29;20392;-82
2023/04/21 04:17:47;;;;;;;;;;;;;;;;;;4863324;29;20300;-81
2023/04/21 04:20:13;;;;;;;;;;;;;;;;;;4832066;29;19916;-80
2023/04/21 04:22:38;;;;;;;;;;;;;;;;;;4831882;29;20304;-80
2023/04/21 04:25:04;;;;;;;;;;;;;;;;;;4878085;29;20067;-81
2023/04/21 04:27:29;;;;;;;;;;;;;;;;;;4849003;29;19947;-85
2023/04/21 04:29:56;;;;;;;;;;;;;;;;;;4846700;29;19916;-80
2023/04/21 04:32:21;;;;;;;;;;;;;;;;;;4861554;29;19917;-78
2023/04/21 04:34:47;;;;;;;;;;;;;;;;;;4861084;29;20045;-81
2023/04/21 04:37:12;;;;;;;;;;;;;;;;;;4876331;29;19955;-79
2023/04/21 04:39:38;;;;;;;;;;;;;;;;;;4862923;29;19916;-81
2023/04/21 04:42:04;;;;;;;;;;;;;;;;;;4875574;29;20330;-80
2023/04/21 04:44:30;;;;;;;;;;;;;;;;;;4846324;29;19916;-80
2023/04/21 04:46:56;;;;;;;;;;;;;;;;;;4865001;29;19916;-81
2023/04/21 04:49:21;;;;;;;;;;;;;;;;;;4865796;29;19968;-81
2023/04/21 04:51:47;;;;;;;;;;;;;;;;;;4850192;29;20265;-82
2023/04/21 04:54:12;;;;;;;;;;;;;;;;;;4878645;29;19939;-81
2023/04/21 04:56:39;;;;;;;;;;;;;;;;;;4847110;29;20003;-81
2023/04/21 04:59:05;;;;;;;;;;;;;;;;;;4863455;29;19927;-81
2023/04/21 05:01:31;;;;;;;;;;;;;;;;;;4880303;29;20003;-81
2023/04/21 05:03:56;;;;;;;;;;;;;;;;;;4865139;29;19951;-80
2023/04/21 05:06:22;;;;;;;;;;;;;;;;;;4848969;29;19916;-81
2023/04/21 05:08:47;;;;;;;;;;;;;;;;;;4864077;29;19916;-80
2023/04/21 05:11:13;;;;;;;;;;;;;;;;;;4876243;29;19953;-80
2023/04/21 05:13:39;;;;;;;;;;;;;;;;;;4863026;29;19980;-82
2023/04/21 05:16:04;;;;;;;;;;;;;;;;;;4860995;29;19971;-81
2023/04/21 05:18:30;;;;;;;;;;;;;;;;;;4861845;29;19923;-80
2023/04/21 05:20:56;;;;;;;;;;;;;;;;;;4862122;29;19916;-79
2023/04/21 05:23:21;;;;;;;;;;;;;;;;;;4862317;29;19979;-81
2023/04/21 05:25:47;;;;;;;;;;;;;;;;;;4863809;29;19916;-84
2023/04/21 05:28:12;;;;;;;;;;;;;;;;;;4848127;29;20368;-83
2023/04/21 05:30:38;;;;;;;;;;;;;;;;;;4878759;29;20006;-81
2023/04/21 05:33:03;;;;;;;;;;;;;;;;;;4862301;29;19922;-80
2023/04/21 05:35:29;;;;;;;;;;;;;;;;;;4863784;29;20102;-82
2023/04/21 05:37:55;;;;;;;;;;;;;;;;;;4849126;29;19927;-81
2023/04/21 05:40:21;;;;;;;;;;;;;;;;;;4865911;29;19938;-82
2023/04/21 05:42:46;;;;;;;;;;;;;;;;;;4881657;29;19920;-84
2023/04/21 05:45:12;;;;;;;;;;;;;;;;;;4865653;29;19920;-83
2023/04/21 05:47:38;;;;;;;;;;;;;;;;;;4849489;29;19916;-84
2023/04/21 05:50:03;;;;;;;;;;;;;;;;;;4833335;29;19916;-81
2023/04/21 05:52:29;;;;;;;;;;;;;;;;;;4861010;29;19920;-81
2023/04/21 05:54:55;;;;;;;;;;;;;;;;;;4865601;29;19955;-82
2023/04/21 05:57:20;;;;;;;;;;;;;;;;;;4879643;29;19917;-82
2023/04/21 05:59:46;;;;;;;;;;;;;;;;;;4849321;29;19923;-83
2023/04/21 06:02:11;;;;;;;;;;;;;;;;;;4861033;29;19924;-84
2023/04/21 06:04:37;;;;;;;;;;;;;;;;;;4851267;29;19981;-84
2023/04/21 06:07:03;;;;;;;;;;;;;;;;;;4863990;29;20014;-80
2023/04/21 06:09:28;;;;;;;;;;;;;;;;;;4859812;29;19920;-81
2023/04/21 06:11:55;;;;;;;;;;;;;;;;;;4858173;29;19947;-80
2023/04/21 06:14:21;;;;;;;;;;;;;;;;;;4874053;29;20467;-83
2023/04/21 06:16:46;;;;;;;;;;;;;;;;;;4859514;29;20007;-82
2023/04/21 06:19:12;;;;;;;;;;;;;;;;;;4844405;29;19988;-80
2023/04/21 06:21:40;;;;;;;;;;;;;;;;;;4873064;23;22174;-83
2023/04/21 06:24:05;;;;;;;;;;;;;;;;;;4915540;29;19923;-82
2023/04/21 06:26:30;;;;;;;;;;;;;;;;;;4915221;29;19915;-80
2023/04/21 06:28:56;;;;;;;;;;;;;;;;;;4903176;29;19918;-81
2023/04/21 06:31:21;;;;;;;;;;;;;;;;;;4893022;29;19915;-83
2023/04/21 06:33:54;;;;;;;;;;;;;;;;;;4875473;29;19915;-82
2023/04/21 06:36:21;;;;;;;;;;;;;;;;;;4881107;29;19946;-80
2023/04/21 06:38:47;;;;;;;;;;;;;;;;;;4893286;29;19923;-82
2023/04/21 06:41:12;;;;;;;;;;;;;;;;;;4885017;29;19915;-81
2023/04/21 06:43:37;;;;;;;;;;;;;;;;;;4897315;29;19919;-81
2023/04/21 06:46:03;;;;;;;;;;;;;;;;;;4883202;29;19939;-81
2023/04/21 06:48:29;;;;;;;;;;;;;;;;;;4877752;29;19919;-82
2023/04/21 06:50:54;;;;;;;;;;;;;;;;;;4878048;29;19919;-82
2023/04/21 06:53:23;;;;;;;;;;;;;;;;;;4887230;29;20389;-82
2023/04/21 06:55:48;;;;;;;;;;;;;;;;;;4884741;29;19924;-83
2023/04/21 06:58:14;;;;;;;;;;;;;;;;;;4891626;29;20372;-81
2023/04/21 07:00:41;;;;;;;;;;;;;;;;;;4880722;29;19988;-81
2023/04/21 07:03:06;;;;;;;;;;;;;;;;;;4895528;29;20383;-82
2023/04/21 07:05:32;;;;;;;;;;;;;;;;;;4889540;29;20007;-82
2023/04/21 07:08:00;;;;;;;;;;;;;;;;;;4892410;29;20378;-82
2023/04/21 07:10:26;;;;;;;;;;;;;;;;;;4883763;29;20019;-82
2023/04/21 07:12:51;;;;;;;;;;;;;;;;;;4896651;29;19955;-81
2023/04/21 07:15:17;;;;;;;;;;;;;;;;;;4888618;29;20360;-81
2023/04/21 07:17:42;;;;;;;;;;;;;;;;;;4888877;29;19916;-83
2023/04/21 07:20:08;;;;;;;;;;;;;;;;;;4895238;29;19949;-84
2023/04/21 07:22:34;;;;;;;;;;;;;;;;;;4883499;29;20388;-85
2023/04/21 07:25:00;;;;;;;;;;;;;;;;;;4894711;29;19916;-84
2023/04/21 07:27:25;;;;;;;;;;;;;;;;;;4873658;29;19922;-86
2023/04/21 07:29:51;;;;;;;;;;;;;;;;;;4888808;29;19916;-82
2023/04/21 07:32:37;;;;;;;;;;;;;;;;;;4896576;29;20497;-83
2023/04/21 07:35:02;;;;;;;;;;;;;;;;;;4885166;29;19920;-81
2023/04/21 07:37:28;;;;;;;;;;;;;;;;;;4890557;29;19974;-82
2023/04/21 07:39:53;;;;;;;;;;;;;;;;;;4891795;29;19915;-82
2023/04/21 07:42:19;;;;;;;;;;;;;;;;;;4885191;29;20388;-83
2023/04/21 07:44:45;;;;;;;;;;;;;;;;;;4896886;29;20388;-82
2023/04/21 07:47:11;;;;;;;;;;;;;;;;;;4887795;29;19926;-81
2023/04/21 07:49:36;;;;;;;;;;;;;;;;;;4873971;29;20009;-81
2023/04/21 07:52:02;;;;;;;;;;;;;;;;;;4893507;29;19947;-80
2023/04/21 07:54:27;;;;;;;;;;;;;;;;;;4884398;29;19968;-80
2023/04/21 07:56:53;;;;;;;;;;;;;;;;;;4896064;29;19919;-81
2023/04/21 07:59:18;;;;;;;;;;;;;;;;;;4896971;29;19921;-80
2023/04/21 08:01:44;;;;;;;;;;;;;;;;;;4904438;29;19917;-80
2023/04/21 08:04:09;;;;;;;;;;;;;;;;;;4912350;29;19915;-82
2023/04/21 08:06:35;;;;;;;;;;;;;;;;;;4900128;29;20379;-85
2023/04/21 08:09:00;;;;;;;;;;;;;;;;;;4914122;29;19926;-86
2023/04/21 08:11:46;;;;;;;;;;;;;;;;;;4897259;29;19921;-87
2023/04/21 08:14:31;;;;;;;;;;;;;;;;;;4902597;29;19979;-87
2023/04/21 08:16:56;;;;;;;;;;;;;;;;;;4887893;29;19924;-86
2023/04/21 08:19:21;;;;;;;;;;;;;;;;;;4890352;29;19927;-86
2023/04/21 08:21:47;;;;;;;;;;;;;;;;;;4888718;29;19936;-86
2023/04/21 08:24:12;;;;;;;;;;;;;;;;;;4895317;29;20395;-87
2023/04/21 08:26:38;;;;;;;;;;;;;;;;;;4881549;29;19931;-84
2023/04/21 08:29:05;;;;;;;;;;;;;;;;;;4886389;29;20352;-85
2023/04/21 08:31:31;;;;;;;;;;;;;;;;;;4898427;29;19916;-85
2023/04/21 08:33:56;;;;;;;;;;;;;;;;;;4887570;29;20014;-85
2023/04/21 08:36:22;;;;;;;;;;;;;;;;;;4895820;29;19966;-86
2023/04/21 08:38:47;;;;;;;;;;;;;;;;;;4864937;29;20265;-85
2023/04/21 08:41:13;;;;;;;;;;;;;;;;;;4885936;29;19915;-86
2023/04/21 08:43:38;;;;;;;;;;;;;;;;;;4889484;29;19951;-86
2023/04/21 08:46:03;;;;;;;;;;;;;;;;;;4881462;29;19916;-86
2023/04/21 08:48:29;;;;;;;;;;;;;;;;;;4884944;29;19916;-86
2023/04/21 08:50:54;;;;;;;;;;;;;;;;;;4894440;29;19926;-86
2023/04/21 08:53:20;;;;;;;;;;;;;;;;;;4887762;29;20149;-83
2023/04/21 08:55:46;;;;;;;;;;;;;;;;;;4888528;29;19920;-84
2023/04/21 08:58:12;;;;;;;;;;;;;;;;;;4892634;29;19916;-85
2023/04/21 09:00:38;;;;;;;;;;;;;;;;;;4881873;29;20388;-84
2023/04/21 09:03:06;;;;;;;;;;;;;;;;;;4892060;29;19971;-85
2023/04/21 09:05:32;;;;;;;;;;;;;;;;;;4872896;29;19919;-81
2023/04/21 09:07:57;;;;;;;;;;;;;;;;;;4890545;29;20384;-85
2023/04/21 09:10:23;;;;;;;;;;;;;;;;;;4890185;29;19934;-86
2023/04/21 09:12:48;;;;;;;;;;;;;;;;;;4882054;29;19945;-81
2023/04/21 09:15:14;;;;;;;;;;;;;;;;;;4891617;29;20118;-82
2023/04/21 09:17:40;;;;;;;;;;;;;;;;;;4868303;29;19938;-81
2023/04/21 09:20:05;;;;;;;;;;;;;;;;;;4891826;29;20388;-81
2023/04/21 09:22:31;;;;;;;;;;;;;;;;;;4855082;29;19984;-82
2023/04/21 09:24:56;;;;;;;;;;;;;;;;;;4892784;29;19912;-81
2023/04/21 09:27:22;;;;;;;;;;;;;;;;;;4894275;29;19916;-81
2023/04/21 09:29:47;;;;;;;;;;;;;;;;;;4890053;29;20276;-82
2023/04/21 09:32:13;;;;;;;;;;;;;;;;;;4904579;29;19938;-81
2023/04/21 09:34:38;;;;;;;;;;;;;;;;;;4896960;29;20382;-82
2023/04/21 09:37:04;;;;;;;;;;;;;;;;;;4898107;29;19962;-80
2023/04/21 09:39:30;;;;;;;;;;;;;;;;;;4906394;29;20309;-82
2023/04/21 09:41:56;;;;;;;;;;;;;;;;;;4889014;29;19919;-81
2023/04/21 09:44:21;;;;;;;;;;;;;;;;;;4881280;29;20452;-83
2023/04/21 09:46:47;;;;;;;;;;;;;;;;;;4896340;29;19915;-84
2023/04/21 09:49:12;;;;;;;;;;;;;;;;;;4890359;29;19923;-83
2023/04/21 09:51:37;;;;;;;;;;;;;;;;;;4887976;29;19920;-82
2023/04/21 09:54:03;;;;;;;;;;;;;;;;;;4891667;29;19915;-81
2023/04/21 09:56:28;;;;;;;;;;;;;;;;;;4881784;29;19924;-81
2023/04/21 09:58:54;;;;;;;;;;;;;;;;;;4870234;29;19935;-82
2023/04/21 10:01:19;;;;;;;;;;;;;;;;;;4896331;29;19959;-81
2023/04/21 10:03:45;;;;;;;;;;;;;;;;;;4880425;29;20256;-84
2023/04/21 10:06:10;;;;;;;;;;;;;;;;;;4866648;29;19920;-85
2023/04/21 10:08:36;;;;;;;;;;;;;;;;;;4877429;29;19938;-84
2023/04/21 10:11:01;;;;;;;;;;;;;;;;;;4882470;29;19920;-84
2023/04/21 10:13:27;;;;;;;;;;;;;;;;;;4872958;29;20027;-85
2023/04/21 10:15:52;;;;;;;;;;;;;;;;;;4889791;29;20277;-81
2023/04/21 10:18:18;;;;;;;;;;;;;;;;;;4865357;29;19955;-82
2023/04/21 10:20:43;;;;;;;;;;;;;;;;;;4882059;29;19963;-82
2023/04/21 10:23:09;;;;;;;;;;;;;;;;;;4890287;29;19924;-83
2023/04/21 10:25:34;;;;;;;;;;;;;;;;;;4871541;29;19960;-81
2023/04/21 10:27:59;;;;;;;;;;;;;;;;;;4884620;29;20364;-84
2023/04/21 10:30:25;;;;;;;;;;;;;;;;;;4893315;29;19919;-84
2023/04/21 10:32:50;;;;;;;;;;;;;;;;;;4881100;29;19916;-82
2023/04/21 10:35:16;;;;;;;;;;;;;;;;;;4880059;29;19948;-83
2023/04/21 10:37:42;;;;;;;;;;;;;;;;;;4886025;29;19916;-81
2023/04/21 10:40:10;;;;;;;;;;;;;;;;;;4876117;29;19963;-80
2023/04/21 10:42:36;;;;;;;;;;;;;;;;;;4883638;29;19942;-80
2023/04/21 10:45:02;;;;;;;;;;;;;;;;;;4894196;29;20547;-80
2023/04/21 10:47:29;;;;;;;;;;;;;;;;;;4889554;29;20401;-80
2023/04/21 10:49:54;;;;;;;;;;;;;;;;;;4900738;29;19989;-79
2023/04/21 10:52:20;;;;;;;;;;;;;;;;;;4884521;29;19940;-79
2023/04/21 10:54:46;;;;;;;;;;;;;;;;;;4896022;29;20459;-80
2023/04/21 10:57:11;;;;;;;;;;;;;;;;;;5012239;23;19941;-85
2023/04/21 10:59:37;;;;;;;;;;;;;;;;;;4958631;29;19925;-84
2023/04/21 11:02:02;;;;;;;;;;;;;;;;;;4940147;28;20397;-83
2023/04/21 11:04:28;;;;;;;;;;;;;;;;;;4903166;29;19919;-85
2023/04/21 11:06:53;;;;;;;;;;;;;;;;;;4903200;29;19922;-84
2023/04/21 11:09:18;;;;;;;;;;;;;;;;;;4919749;29;19918;-80
2023/04/21 11:11:44;;;;;;;;;;;;;;;;;;4929947;29;20009;-82
2023/04/21 11:14:09;;;;;;;;;;;;;;;;;;4925373;29;19915;-84
2023/04/21 11:16:36;;;;;;;;;;;;;;;;;;4937338;29;20238;-82
2023/04/21 11:19:02;;;;;;;;;;;;;;;;;;4912208;29;19915;-82
2023/04/21 11:21:27;;;;;;;;;;;;;;;;;;4934630;29;19922;-82
2023/04/21 11:23:53;;;;;;;;;;;;;;;;;;4944085;29;19922;-84
2023/04/21 11:26:19;;;;;;;;;;;;;;;;;;4930153;29;19915;-82
2023/04/21 11:28:45;;;;;;;;;;;;;;;;;;4940077;29;19958;-83
2023/04/21 11:31:10;;;;;;;;;;;;;;;;;;4927680;29;19962;-85
2023/04/21 11:33:36;;;;;;;;;;;;;;;;;;4932157;29;20339;-86
2023/04/21 11:36:01;;;;;;;;;;;;;;;;;;4926382;29;19945;-87
2023/04/21 11:38:26;;;;;;;;;;;;;;;;;;4925282;29;19927;-86
2023/04/21 11:40:52;;;;;;;;;;;;;;;;;;4936290;29;19954;-85
2023/04/21 11:43:18;;;;;;;;;;;;;;;;;;4926854;29;19919;-87
2023/04/21 11:45:43;;;;;;;;;;;;;;;;;;4925205;29;19916;-87
2023/04/21 11:48:09;;;;;;;;;;;;;;;;;;4903371;29;19978;-85
2023/04/21 11:50:37;;;;;;;;;;;;;;;;;;4918876;29;19918;-86
2023/04/21 11:53:03;;;;;;;;;;;;;;;;;;4931186;29;19915;-86
2023/04/21 11:55:29;;;;;;;;;;;;;;;;;;4912613;29;19923;-85
2023/04/21 11:57:54;;;;;;;;;;;;;;;;;;4930460;29;20009;-85
2023/04/21 12:00:20;;;;;;;;;;;;;;;;;;4920988;29;20072;-85
2023/04/21 12:02:46;;;;;;;;;;;;;;;;;;4918678;29;19915;-85
2023/04/21 12:05:11;;;;;;;;;;;;;;;;;;4918511;29;20029;-83
2023/04/21 12:07:37;;;;;;;;;;;;;;;;;;4919089;29;19969;-85
2023/04/21 12:10:02;;;;;;;;;;;;;;;;;;4918833;29;19958;-85
2023/04/21 12:12:27;;;;;;;;;;;;;;;;;;4919012;29;20281;-86
2023/04/21 12:14:53;;;;;;;;;;;;;;;;;;4933063;29;20359;-84
2023/04/21 12:17:19;;;;;;;;;;;;;;;;;;4925699;29;20009;-84
2023/04/21 12:19:44;;;;;;;;;;;;;;;;;;4925509;29;20017;-86
2023/04/21 12:22:10;;;;;;;;;;;;;;;;;;4915283;29;19921;-82
2023/04/21 12:24:35;;;;;;;;;;;;;;;;;;4919056;29;20350;-83
2023/04/21 12:27:01;;;;;;;;;;;;;;;;;;4902116;29;20422;-81
2023/04/21 12:29:27;;;;;;;;;;;;;;;;;;4921238;29;20478;-84
2023/04/21 12:31:52;;;;;;;;;;;;;;;;;;4927742;29;20039;-82
2023/04/21 12:34:17;;;;;;;;;;;;;;;;;;4922032;29;19919;-84
2023/04/21 12:36:43;;;;;;;;;;;;;;;;;;4934044;29;19957;-85
2023/04/21 12:39:09;;;;;;;;;;;;;;;;;;4922189;29;20290;-83
2023/04/21 12:41:34;;;;;;;;;;;;;;;;;;4935416;29;19973;-84
2023/04/21 12:44:00;;;;;;;;;;;;;;;;;;4907927;29;19919;-82
2023/04/21 12:46:28;;;;;;;;;;;;;;;;;;4917635;29;20208;-82
2023/04/21 12:48:54;;;;;;;;;;;;;;;;;;4903166;29;20006;-83
2023/04/21 12:51:20;;;;;;;;;;;;;;;;;;4920640;29;20371;-80
2023/04/21 12:53:45;;;;;;;;;;;;;;;;;;4928573;29;19963;-81
2023/04/21 12:56:11;;;;;;;;;;;;;;;;;;4920720;29;19975;-82
2023/04/21 12:58:37;;;;;;;;;;;;;;;;;;4916105;29;20378;-82
2023/04/21 13:01:02;;;;;;;;;;;;;;;;;;4905332;29;20298;-81
2023/04/21 13:03:27;;;;;;;;;;;;;;;;;;4909857;29;19960;-83
2023/04/21 13:05:53;;;;;;;;;;;;;;;;;;4929304;29;19915;-83
2023/04/21 13:08:18;;;;;;;;;;;;;;;;;;4906442;29;19915;-81
2023/04/21 13:10:44;;;;;;;;;;;;;;;;;;4940180;29;19915;-82
2023/04/21 13:13:10;;;;;;;;;;;;;;;;;;4911400;29;19914;-85
2023/04/21 13:15:35;;;;;;;;;;;;;;;;;;4923231;29;20191;-84
2023/04/21 13:18:01;;;;;;;;;;;;;;;;;;4926149;29;19937;-83
2023/04/21 13:20:26;;;;;;;;;;;;;;;;;;4934512;29;19915;-84
2023/04/21 13:22:52;;;;;;;;;;;;;;;;;;4921477;29;19915;-83
2023/04/21 13:25:17;;;;;;;;;;;;;;;;;;4912073;29;20291;-82
2023/04/21 13:27:43;;;;;;;;;;;;;;;;;;4910313;29;19922;-88
2023/04/21 13:30:08;;;;;;;;;;;;;;;;;;4923842;29;20014;-86
2023/04/21 13:32:33;;;;;;;;;;;;;;;;;;4932445;29;19915;-87
2023/04/21 13:34:59;;;;;;;;;;;;;;;;;;4917286;29;19950;-85
2023/04/21 13:37:24;;;;;;;;;;;;;;;;;;4935598;29;19915;-86
2023/04/21 13:39:50;;;;;;;;;;;;;;;;;;4924665;29;20411;-85
2023/04/21 13:42:16;;;;;;;;;;;;;;;;;;4913098;29;20263;-86
2023/04/21 13:44:41;;;;;;;;;;;;;;;;;;4920524;29;19950;-86
2023/04/21 13:47:08;;;;;;;;;;;;;;;;;;4930076;29;19915;-85
2023/04/21 13:49:34;;;;;;;;;;;;;;;;;;4926612;29;20002;-85
2023/04/21 13:51:59;;;;;;;;;;;;;;;;;;4924180;29;19919;-86
2023/04/21 13:54:24;;;;;;;;;;;;;;;;;;4933249;29;20271;-82
2023/04/21 13:56:50;;;;;;;;;;;;;;;;;;4904806;29;19925;-78
2023/04/21 13:59:15;;;;;;;;;;;;;;;;;;4934479;29;20299;-78
2023/04/21 14:01:41;;;;;;;;;;;;;;;;;;4924444;29;19962;-78
2023/04/21 14:04:07;;;;;;;;;;;;;;;;;;4933038;29;19959;-90
2023/04/21 14:06:32;;;;;;;;;;;;;;;;;;4926933;29;20006;-88
2023/04/21 14:09:00;;;;;;;;;;;;;;;;;;4922238;29;19923;-86
2023/04/21 14:11:26;;;;;;;;;;;;;;;;;;4910869;29;19919;-85
2023/04/21 14:13:51;;;;;;;;;;;;;;;;;;4917851;29;19967;-83
2023/04/21 14:16:17;;;;;;;;;;;;;;;;;;4926253;29;19967;-84
2023/04/21 14:18:46;;;;;;;;;;;;;;;;;;4935442;29;19915;-80
2023/04/21 14:21:11;;;;;;;;;;;;;;;;;;4925576;29;19939;-78
2023/04/21 14:23:37;;;;;;;;;;;;;;;;;;4931769;29;19970;-86
2023/04/21 14:26:02;;;;;;;;;;;;;;;;;;4925155;29;20010;-85
2023/04/21 14:28:27;;;;;;;;;;;;;;;;;;4926618;29;19915;-85
2023/04/21 14:30:53;;;;;;;;;;;;;;;;;;4930779;29;19946;-84
2023/04/21 14:33:18;;;;;;;;;;;;;;;;;;4929110;29;20332;-84
2023/04/21 14:35:44;;;;;;;;;;;;;;;;;;4916944;29;19954;-84
2023/04/21 14:38:10;;;;;;;;;;;;;;;;;;4949944;29;19969;-82
2023/04/21 14:40:35;;;;;;;;;;;;;;;;;;4944792;29;19919;-85
2023/04/21 14:43:00;;;;;;;;;;;;;;;;;;4945954;29;20299;-85
2023/04/21 14:45:26;;;;;;;;;;;;;;;;;;4941017;29;19919;-85
2023/04/21 14:47:52;;;;;;;;;;;;;;;;;;4955240;29;20049;-86
2023/04/21 14:50:17;;;;;;;;;;;;;;;;;;4942271;29;20482;-83
2023/04/21 14:52:43;;;;;;;;;;;;;;;;;;4952866;29;19923;-84
2023/04/21 14:55:09;;;;;;;;;;;;;;;;;;4940229;29;19929;-82
2023/04/21 14:57:35;;;;;;;;;;;;;;;;;;4940059;29;19946;-81
2023/04/21 15:00:00;;;;;;;;;;;;;;;;;;4940174;29;19966;-82
2023/04/21 15:02:26;;;;;;;;;;;;;;;;;;4928776;29;19932;-83
2023/04/21 15:04:51;;;;;;;;;;;;;;;;;;4942539;29;19922;-82
2023/04/21 15:07:17;;;;;;;;;;;;;;;;;;4932249;29;19926;-84
2023/04/21 15:09:44;;;;;;;;;;;;;;;;;;4942230;29;19915;-83
2023/04/21 15:12:11;;;;;;;;;;;;;;;;;;4924850;29;19915;-82
2023/04/21 15:14:36;;;;;;;;;;;;;;;;;;4937970;29;19921;-83
2023/04/21 15:17:02;;;;;;;;;;;;;;;;;;4932655;29;19919;-82
2023/04/21 15:19:27;;;;;;;;;;;;;;;;;;4925997;29;19986;-82
2023/04/21 15:21:53;;;;;;;;;;;;;;;;;;4938188;29;19919;-82
2023/04/21 15:24:18;;;;;;;;;;;;;;;;;;4923236;29;19927;-82
2023/04/21 15:26:44;;;;;;;;;;;;;;;;;;4917020;29;19943;-82
2023/04/21 15:29:09;;;;;;;;;;;;;;;;;;4925629;29;20287;-82
2023/04/21 15:31:36;;;;;;;;;;;;;;;;;;4921458;29;19919;-82
2023/04/21 15:34:01;;;;;;;;;;;;;;;;;;4938378;29;19915;-82
2023/04/21 15:36:27;;;;;;;;;;;;;;;;;;4921888;29;19926;-82
2023/04/21 15:38:52;;;;;;;;;;;;;;;;;;4918644;29;19915;-82
2023/04/21 15:41:18;;;;;;;;;;;;;;;;;;4909918;29;19919;-82
2023/04/21 15:43:43;;;;;;;;;;;;;;;;;;4918105;29;20338;-82
2023/04/21 15:46:11;;;;;;;;;;;;;;;;;;4933015;29;20354;-82
2023/04/21 15:48:37;;;;;;;;;;;;;;;;;;4921409;29;19991;-83
2023/04/21 15:51:03;;;;;;;;;;;;;;;;;;4915810;29;20271;-82
2023/04/21 15:53:28;;;;;;;;;;;;;;;;;;4910419;29;19970;-83
2023/04/21 15:55:53;;;;;;;;;;;;;;;;;;4936564;29;19918;-83
2023/04/21 15:58:21;;;;;;;;;;;;;;;;;;4922778;29;19971;-79
2023/04/21 16:00:46;;;;;;;;;;;;;;;;;;4937007;29;19919;-81
2023/04/21 16:03:11;;;;;;;;;;;;;;;;;;4920726;29;20418;-82
2023/04/21 16:05:37;;;;;;;;;;;;;;;;;;4915372;29;19922;-82
2023/04/21 16:08:02;;;;;;;;;;;;;;;;;;4918476;29;19915;-82
2023/04/21 16:10:27;;;;;;;;;;;;;;;;;;4934972;29;19918;-81
2023/04/21 16:12:53;;;;;;;;;;;;;;;;;;4927248;29;19914;-82
2023/04/21 16:15:18;;;;;;;;;;;;;;;;;;4921661;29;19927;-83
2023/04/21 16:17:44;;;;;;;;;;;;;;;;;;4928998;29;19947;-83
2023/04/21 16:20:09;;;;;;;;;;;;;;;;;;4921636;29;19925;-83
2023/04/21 16:22:35;;;;;;;;;;;;;;;;;;4934766;29;20001;-82
2023/04/21 16:25:00;;;;;;;;;;;;;;;;;;4930606;29;19915;-82
2023/04/21 16:27:25;;;;;;;;;;;;;;;;;;4925900;29;19953;-83
2023/04/21 16:29:51;;;;;;;;;;;;;;;;;;4925376;29;19915;-82
2023/04/21 16:32:16;;;;;;;;;;;;;;;;;;4932208;29;20018;-84
2023/04/21 16:34:41;;;;;;;;;;;;;;;;;;4919318;29;19915;-82
2023/04/21 16:37:07;;;;;;;;;;;;;;;;;;4913255;29;20466;-83
2023/04/21 16:39:32;;;;;;;;;;;;;;;;;;4925692;29;19998;-83